Savana De La Mar, Dominican Republic
Current Conditions -  °F | °C
As of 8:00 PM on Sunday 25 Jan 2015 (Local Time) from MDCY Reporting Station
Broken Clouds Broken Clouds  
Wind Chill: 75°   Ceiling: 7000
Heat Index: 75°   Visibility: 6mi
Dew Point: 73°   Wind: 7mph
Humidity: 94%   Direction: 180°S
Pressure: 29.94"   Gusts: NA
Location:  19.05°N, 69.38°W
Report Text: MDCY 260000Z 18006KT 9999 SCT018 BKN070 24/23 Q1014 RERA
Loading
Personal Weather Stations






























Interactive Weather Map New forecast layout! Learn more

10-Day Weather Forecast

Advertisements
Track Severe Weather on mobile